Time;durP1;ratioP1;P1;durP2;ratioP2;P2;SDS_P1;SDS_P2;PMS_P1;PMS_P2;Temp;Humidity;BMP_temperature;BMP_pressure;BME280_temperature;BME280_humidity;BME280_pressure;Samples;Min_cycle;Max_cycle;Signal;HPM_P1;HPM_P2
2023/09/25 00:01:16;;;;;;;;;;;;;;;5.83;59.51;102300.61;105037;1289;66232;-54
2023/09/25 00:04:02;;;;;;;;;;;;;;;5.80;59.25;102301.19;105337;1289;71239;-56
2023/09/25 00:06:48;;;;;;;;;;;;;;;5.81;59.48;102300.71;104979;1289;61209;-55
2023/09/25 00:09:34;;;;;;;;;;;;;;;5.84;59.91;102299.95;105017;1289;62133;-56
2023/09/25 00:12:21;;;;;;;;;;;;;;;5.84;60.82;102294.50;104988;1291;76063;-56
2023/09/25 00:15:08;;;;;;;;;;;;;;;5.83;61.02;102289.14;105045;1289;67453;-56
2023/09/25 00:17:54;;;;;;;;;;;;;;;5.79;61.00;102288.83;105354;1289;72639;-56
2023/09/25 00:20:40;;;;;;;;;;;;;;;5.72;60.42;102287.27;104982;1290;61519;-56
2023/09/25 00:23:27;;;;;;;;;;;;;;;5.66;59.64;102294.47;105101;1289;61266;-56
2023/09/25 00:26:14;;;;;;;;;;;;;;;5.66;60.66;102295.48;105014;1293;73445;-55
2023/09/25 00:29:00;;;;;;;;;;;;;;;5.68;60.59;102299.65;105040;1289;67158;-56
2023/09/25 00:31:46;;;;;;;;;;;;;;;5.71;61.03;102296.32;105037;1289;71351;-56
2023/09/25 00:34:32;;;;;;;;;;;;;;;5.72;61.41;102294.98;105035;1289;61161;-56
2023/09/25 00:37:18;;;;;;;;;;;;;;;5.70;61.28;102296.63;104995;1289;61033;-56
2023/09/25 00:40:17;;;;;;;;;;;;;;;5.60;61.30;102294.80;104979;1291;75443;-56
2023/09/25 00:43:05;;;;;;;;;;;;;;;5.50;60.18;102298.92;104977;1288;70133;-56
2023/09/25 00:45:51;;;;;;;;;;;;;;;5.45;61.02;102302.17;105000;1289;73117;-55
2023/09/25 00:48:42;;;;;;;;;;;;;;;5.45;61.36;102302.02;105026;1289;61180;-56
2023/09/25 00:51:28;;;;;;;;;;;;;;;5.45;61.09;102304.05;105033;1289;61500;-56
2023/09/25 00:54:17;;;;;;;;;;;;;;;5.45;61.21;102302.52;105036;1289;73196;-55
2023/09/25 00:57:04;;;;;;;;;;;;;;;5.44;61.60;102306.77;105060;1289;66725;-56
2023/09/25 00:59:51;;;;;;;;;;;;;;;5.42;61.60;102300.38;105032;1289;71165;-56
2023/09/25 01:02:38;;;;;;;;;;;;;;;5.39;61.37;102296.70;104908;1289;61157;-55
2023/09/25 01:05:24;;;;;;;;;;;;;;;5.38;61.76;102296.14;105032;1288;62863;-54
2023/09/25 01:08:10;;;;;;;;;;;;;;;5.36;61.83;102292.83;105024;1289;74303;-56
2023/09/25 01:10:58;;;;;;;;;;;;;;;5.34;61.90;102291.73;105002;1288;67267;-56
2023/09/25 01:13:44;;;;;;;;;;;;;;;5.30;61.90;102291.95;104842;1289;72977;-56
2023/09/25 01:16:31;;;;;;;;;;;;;;;5.26;60.57;102288.23;105074;1292;61221;-54
2023/09/25 01:19:17;;;;;;;;;;;;;;;5.26;61.02;102281.89;105036;1289;61267;-55
2023/09/25 01:22:03;;;;;;;;;;;;;;;5.27;61.66;102280.05;105024;1290;73279;-56
2023/09/25 01:24:49;;;;;;;;;;;;;;;5.27;61.05;102277.30;105042;1290;67333;-55
2023/09/25 01:27:40;;;;;;;;;;;;;;;5.28;61.96;102277.52;105027;1290;71248;-55
2023/09/25 01:30:28;;;;;;;;;;;;;;;5.27;62.01;102276.81;104322;1289;309176;-56
2023/09/25 01:33:15;;;;;;;;;;;;;;;5.20;62.05;102278.48;104983;1289;59993;-56
2023/09/25 01:36:01;;;;;;;;;;;;;;;5.15;61.60;102277.15;105048;1289;74137;-55
2023/09/25 01:38:48;;;;;;;;;;;;;;;5.11;61.16;102275.27;105021;1289;66321;-55
2023/09/25 01:41:34;;;;;;;;;;;;;;;5.07;61.17;102275.31;105004;1289;71244;-56
2023/09/25 01:44:20;;;;;;;;;;;;;;;5.08;61.14;102277.40;104999;1290;61195;-54
2023/09/25 01:47:06;;;;;;;;;;;;;;;5.09;61.37;102276.05;105044;1289;59152;-55
2023/09/25 01:49:53;;;;;;;;;;;;;;;5.10;62.27;102271.99;104953;1289;73356;-55
2023/09/25 01:52:40;;;;;;;;;;;;;;;5.13;61.97;102265.77;105046;1293;66717;-56
2023/09/25 01:55:31;;;;;;;;;;;;;;;5.15;62.17;102264.65;105048;1289;71092;-55
2023/09/25 01:58:17;;;;;;;;;;;;;;;5.17;62.22;102262.48;104999;1291;61189;-55
2023/09/25 02:01:04;;;;;;;;;;;;;;;5.17;62.07;102258.89;105037;1289;61158;-56
2023/09/25 02:03:50;;;;;;;;;;;;;;;5.15;61.85;102260.71;105054;1289;73235;-56
2023/09/25 02:06:36;;;;;;;;;;;;;;;5.10;62.02;102257.13;105015;1290;67161;-56
2023/09/25 02:09:22;;;;;;;;;;;;;;;5.08;62.36;102257.39;105051;1289;75351;-55
2023/09/25 02:12:08;;;;;;;;;;;;;;;5.12;62.63;102253.59;105035;1289;61239;-56
2023/09/25 02:14:57;;;;;;;;;;;;;;;5.17;62.63;102255.48;105006;1291;61144;-56
2023/09/25 02:17:43;;;;;;;;;;;;;;;5.25;62.48;102248.88;104956;1291;73224;-56
2023/09/25 02:20:30;;;;;;;;;;;;;;;5.30;63.01;102250.05;105061;1289;73162;-56
2023/09/25 02:23:16;;;;;;;;;;;;;;;5.31;62.58;102248.23;104980;1291;71321;-56
2023/09/25 02:26:02;;;;;;;;;;;;;;;5.33;62.41;102246.39;105032;1291;61568;-56
2023/09/25 02:28:48;;;;;;;;;;;;;;;5.27;62.28;102246.72;105043;1292;61178;-55
2023/09/25 02:31:34;;;;;;;;;;;;;;;5.27;62.19;102249.10;101767;1289;5009103;-55
2023/09/25 02:34:20;;;;;;;;;;;;;;;5.28;62.30;102247.94;105026;1293;71429;-55
2023/09/25 02:37:06;;;;;;;;;;;;;;;5.30;62.62;102248.86;105046;1289;61296;-56
2023/09/25 02:39:53;;;;;;;;;;;;;;;5.31;62.50;102245.98;104995;1292;61174;-56
2023/09/25 02:42:40;;;;;;;;;;;;;;;5.31;62.50;102245.63;105069;1289;73266;-54
2023/09/25 02:45:26;;;;;;;;;;;;;;;5.32;62.97;102241.77;104993;1293;67439;-55
2023/09/25 02:48:12;;;;;;;;;;;;;;;5.36;62.70;102242.39;105004;1291;71626;-56
2023/09/25 02:50:58;;;;;;;;;;;;;;;5.39;62.91;102239.40;105117;1289;61383;-55
2023/09/25 02:53:44;;;;;;;;;;;;;;;5.40;62.90;102238.23;104994;1292;61803;-55
2023/09/25 02:56:30;;;;;;;;;;;;;;;5.40;62.85;102235.67;105078;1289;77466;-55
2023/09/25 02:59:16;;;;;;;;;;;;;;;5.37;63.01;102235.06;104978;1291;69567;-55
2023/09/25 03:02:02;;;;;;;;;;;;;;;5.35;62.84;102233.97;104997;1288;71170;-54
2023/09/25 03:04:49;;;;;;;;;;;;;;;5.31;62.93;102231.96;105042;1289;61349;-55
2023/09/25 03:07:35;;;;;;;;;;;;;;;5.29;63.22;102234.98;105051;1288;61225;-56
2023/09/25 03:10:21;;;;;;;;;;;;;;;5.28;63.02;102231.88;105066;1293;73292;-55
2023/09/25 03:13:07;;;;;;;;;;;;;;;5.30;63.33;102239.45;104985;1289;68074;-55
2023/09/25 03:15:54;;;;;;;;;;;;;;;5.33;63.55;102237.66;105028;1294;73329;-56
2023/09/25 03:18:41;;;;;;;;;;;;;;;5.35;63.72;102239.80;105066;1289;61190;-54
2023/09/25 03:21:27;;;;;;;;;;;;;;;5.37;63.49;102239.35;105047;1291;61483;-55
2023/09/25 03:24:13;;;;;;;;;;;;;;;5.42;63.59;102241.55;105079;1289;74696;-54
2023/09/25 03:26:59;;;;;;;;;;;;;;;5.47;63.77;102245.63;104959;1293;69987;-56
2023/09/25 03:29:45;;;;;;;;;;;;;;;5.51;63.92;102245.23;105039;1294;71563;-55
2023/09/25 03:32:31;;;;;;;;;;;;;;;5.55;64.12;102247.07;104930;1289;63148;-55
2023/09/25 03:35:18;;;;;;;;;;;;;;;5.58;63.94;102248.73;105071;1291;61270;-56
2023/09/25 03:38:04;;;;;;;;;;;;;;;5.62;63.73;102242.52;105029;1289;73226;-55
2023/09/25 03:40:50;;;;;;;;;;;;;;;5.66;63.77;102244.17;105041;1290;67235;-54
2023/09/25 03:43:36;;;;;;;;;;;;;;;5.69;63.79;102245.11;105017;1294;71553;-55
2023/09/25 03:46:22;;;;;;;;;;;;;;;5.64;63.62;102245.66;104992;1290;61279;-56
2023/09/25 03:49:08;;;;;;;;;;;;;;;5.62;63.97;102243.20;105082;1289;63475;-55
2023/09/25 03:51:54;;;;;;;;;;;;;;;5.60;63.31;102239.02;104995;1289;75732;-56
2023/09/25 03:54:40;;;;;;;;;;;;;;;5.62;63.66;102236.54;105041;1289;67532;-55
2023/09/25 03:57:27;;;;;;;;;;;;;;;5.64;63.54;102243.08;105012;1289;72133;-55
2023/09/25 04:00:13;;;;;;;;;;;;;;;5.62;63.84;102240.79;105021;1289;61619;-55
2023/09/25 04:02:59;;;;;;;;;;;;;;;5.61;64.09;102237.70;106013;1289;59385;-56
2023/09/25 04:05:45;;;;;;;;;;;;;;;5.63;63.82;102236.71;105034;1292;74011;-56
2023/09/25 04:08:31;;;;;;;;;;;;;;;5.62;63.53;102237.05;105045;1292;68312;-55
2023/09/25 04:11:18;;;;;;;;;;;;;;;5.61;64.02;102231.69;105020;1292;73212;-56
2023/09/25 04:14:06;;;;;;;;;;;;;;;5.60;64.07;102229.63;104909;1294;61867;-55
2023/09/25 04:16:54;;;;;;;;;;;;;;;5.61;64.08;102229.83;105023;1292;60098;-55
2023/09/25 04:19:41;;;;;;;;;;;;;;;5.60;63.99;102226.71;105048;1289;73088;-55
2023/09/25 04:22:27;;;;;;;;;;;;;;;5.60;64.03;102226.37;104992;1289;67232;-56
2023/09/25 04:25:20;;;;;;;;;;;;;;;5.61;64.23;102228.30;104985;1289;71330;-56
2023/09/25 04:28:06;;;;;;;;;;;;;;;5.62;64.22;102233.62;105013;1294;61355;-55
2023/09/25 04:30:53;;;;;;;;;;;;;;;5.63;63.72;102234.32;104965;1289;61348;-55
2023/09/25 04:33:40;;;;;;;;;;;;;;;5.64;64.21;102229.73;105557;1288;306422;-56
2023/09/25 04:36:25;;;;;;;;;;;;;;;5.67;64.21;102227.09;105458;1289;67470;-55
2023/09/25 04:39:13;;;;;;;;;;;;;;;5.69;64.67;102228.52;104967;1289;74057;-54
2023/09/25 04:42:01;;;;;;;;;;;;;;;5.71;64.57;102229.59;105037;1291;61264;-55
2023/09/25 04:44:48;;;;;;;;;;;;;;;5.74;64.73;102230.52;105032;1288;59026;-54
2023/09/25 04:47:34;;;;;;;;;;;;;;;5.77;64.50;102229.58;105020;1294;78841;-55
2023/09/25 04:50:21;;;;;;;;;;;;;;;5.78;64.65;102229.80;105027;1289;67444;-54
2023/09/25 04:53:10;;;;;;;;;;;;;;;5.83;64.89;102236.60;104995;1289;71317;-55
2023/09/25 04:55:56;;;;;;;;;;;;;;;5.85;64.69;102233.92;104980;1289;61282;-55
2023/09/25 04:58:42;;;;;;;;;;;;;;;5.87;64.79;102236.38;104923;1293;61254;-56
2023/09/25 05:01:28;;;;;;;;;;;;;;;5.88;64.91;102239.86;105041;1289;73173;-56
2023/09/25 05:04:14;;;;;;;;;;;;;;;5.91;64.80;102236.35;105019;1289;68285;-56
2023/09/25 05:07:01;;;;;;;;;;;;;;;5.91;64.51;102237.06;104989;1289;71195;-57
2023/09/25 05:09:47;;;;;;;;;;;;;;;5.92;64.44;102236.57;104978;1289;62085;-57
2023/09/25 05:12:33;;;;;;;;;;;;;;;5.95;64.77;102233.25;105036;1290;61199;-57
2023/09/25 05:15:19;;;;;;;;;;;;;;;5.99;65.17;102231.13;104972;1291;73260;-56
2023/09/25 05:18:06;;;;;;;;;;;;;;;6.03;65.11;102230.21;105016;1289;67321;-57
2023/09/25 05:20:53;;;;;;;;;;;;;;;6.08;64.70;102235.64;104847;1289;245039;-57
2023/09/25 05:23:39;;;;;;;;;;;;;;;6.12;65.02;102234.39;104875;1290;61194;-57
2023/09/25 05:26:25;;;;;;;;;;;;;;;6.13;64.38;102236.84;104872;1289;62893;-57
2023/09/25 05:29:12;;;;;;;;;;;;;;;6.18;64.52;102236.61;104938;1290;74135;-57
2023/09/25 05:31:58;;;;;;;;;;;;;;;6.24;64.89;102241.58;104959;1289;68993;-57
2023/09/25 05:34:44;;;;;;;;;;;;;;;6.32;65.05;102242.80;104849;1289;73970;-57
2023/09/25 05:37:30;;;;;;;;;;;;;;;6.36;64.83;102242.73;104953;1288;61276;-56
2023/09/25 05:40:16;;;;;;;;;;;;;;;6.41;64.89;102241.67;104940;1293;61164;-58
2023/09/25 05:43:03;;;;;;;;;;;;;;;6.48;65.09;102246.34;104944;1288;74913;-57
2023/09/25 05:45:49;;;;;;;;;;;;;;;6.57;65.62;102243.84;104926;1289;70003;-57
2023/09/25 05:48:35;;;;;;;;;;;;;;;6.70;65.66;102246.23;104921;1290;71713;-57
2023/09/25 05:51:21;;;;;;;;;;;;;;;6.85;65.66;102246.60;104896;1292;61408;-57
2023/09/25 05:54:07;;;;;;;;;;;;;;;7.05;65.06;102252.77;104936;1292;61173;-58
2023/09/25 05:56:54;;;;;;;;;;;;;;;7.20;65.50;102250.71;104951;1289;73243;-57
2023/09/25 05:59:40;;;;;;;;;;;;;;;7.42;65.21;102252.42;104997;1289;67251;-58
2023/09/25 06:02:27;;;;;;;;;;;;;;;7.67;65.92;102249.91;104983;1289;71318;-57
2023/09/25 06:05:13;;;;;;;;;;;;;;;7.90;65.50;102249.67;104982;1292;61139;-57
2023/09/25 06:07:59;;;;;;;;;;;;;;;8.04;65.38;102251.36;104983;1289;59288;-57
2023/09/25 06:10:45;;;;;;;;;;;;;;;8.23;65.59;102252.09;104936;1294;74455;-57
2023/09/25 06:13:31;;;;;;;;;;;;;;;8.48;66.05;102257.56;104917;1289;69353;-58
2023/09/25 06:16:17;;;;;;;;;;;;;;;8.76;65.91;102255.16;104904;1290;71161;-57
2023/09/25 06:19:04;;;;;;;;;;;;;;;9.06;65.82;102254.11;104957;1290;61561;-58
2023/09/25 06:21:51;;;;;;;;;;;;;;;9.31;66.48;102256.40;104910;1290;60275;-58
2023/09/25 06:24:37;;;;;;;;;;;;;;;9.58;66.60;102258.00;104904;1289;73103;-58
2023/09/25 06:27:23;;;;;;;;;;;;;;;9.89;67.07;102259.77;104878;1294;67408;-57
2023/09/25 06:30:10;;;;;;;;;;;;;;;10.21;67.79;102258.30;104897;1289;71166;-57
2023/09/25 06:32:56;;;;;;;;;;;;;;;10.50;67.61;102264.66;106297;1289;59007;-58
2023/09/25 06:35:42;;;;;;;;;;;;;;;10.81;66.99;102267.39;106315;1289;58994;-57
2023/09/25 06:38:28;;;;;;;;;;;;;;;11.10;67.25;102268.66;106257;1289;73407;-58
2023/09/25 06:41:14;;;;;;;;;;;;;;;11.42;67.24;102269.58;106313;1289;68618;-58
2023/09/25 06:44:00;;;;;;;;;;;;;;;11.82;67.47;102269.50;106264;1289;72453;-58
2023/09/25 06:46:46;;;;;;;;;;;;;;;12.16;67.89;102277.08;105934;1293;60190;-58
2023/09/25 06:49:32;;;;;;;;;;;;;;;12.46;66.88;102278.04;104857;1289;61161;-58
2023/09/25 06:52:18;;;;;;;;;;;;;;;12.83;66.93;102279.31;104936;1289;72762;-58
2023/09/25 06:55:05;;;;;;;;;;;;;;;13.23;66.87;102281.94;104950;1294;67197;-58
2023/09/25 06:57:51;;;;;;;;;;;;;;;13.60;66.71;102285.52;104949;1294;73876;-58
2023/09/25 07:00:37;;;;;;;;;;;;;;;13.77;66.74;102282.19;104888;1289;63966;-58
2023/09/25 07:03:23;;;;;;;;;;;;;;;14.06;67.28;102282.44;104951;1289;61526;-58
2023/09/25 07:06:09;;;;;;;;;;;;;;;14.43;66.82;102281.59;104921;1290;76185;-58
2023/09/25 07:08:57;;;;;;;;;;;;;;;14.76;67.04;102279.64;104919;1289;68100;-57
2023/09/25 07:11:43;;;;;;;;;;;;;;;15.19;66.82;102276.69;104866;1294;71480;-58
2023/09/25 07:14:29;;;;;;;;;;;;;;;15.73;67.05;102279.99;104767;1289;61160;-58
2023/09/25 07:17:16;;;;;;;;;;;;;;;16.17;66.70;102276.33;104919;1289;61123;-58
2023/09/25 07:20:05;;;;;;;;;;;;;;;16.52;66.97;102277.78;104946;1289;73184;-58
2023/09/25 07:22:51;;;;;;;;;;;;;;;16.96;66.45;102275.57;104929;1290;67209;-58
2023/09/25 07:25:37;;;;;;;;;;;;;;;17.17;66.75;102278.34;104831;1292;71412;-58
2023/09/25 07:28:23;;;;;;;;;;;;;;;17.60;66.70;102275.66;104895;1294;61254;-58
2023/09/25 07:31:09;;;;;;;;;;;;;;;17.85;66.29;102274.12;104939;1294;61125;-57
2023/09/25 07:33:58;;;;;;;;;;;;;;;18.11;66.87;102274.46;104886;1290;73262;-58
2023/09/25 07:36:44;;;;;;;;;;;;;;;18.39;66.64;102273.31;104898;1289;68747;-57
2023/09/25 07:39:33;;;;;;;;;;;;;;;18.78;67.11;102270.01;104910;1289;77711;-57
2023/09/25 07:42:20;;;;;;;;;;;;;;;19.09;66.47;102269.05;104873;1289;61150;-57
2023/09/25 07:45:11;;;;;;;;;;;;;;;19.67;67.07;102272.25;104904;1289;60446;-56
2023/09/25 07:47:57;;;;;;;;;;;;;;;20.26;66.32;102268.26;106247;1290;74407;-57
2023/09/25 07:50:45;;;;;;;;;;;;;;;20.67;65.27;102267.16;106259;1289;68550;-57
2023/09/25 07:53:31;;;;;;;;;;;;;;;21.02;66.49;102265.67;106231;1288;71687;-56
2023/09/25 07:56:17;;;;;;;;;;;;;;;21.65;66.47;102261.71;106219;1290;59276;-57
2023/09/25 07:59:02;;;;;;;;;;;;;;;22.14;65.40;102258.33;106220;1289;59052;-58
2023/09/25 08:01:48;;;;;;;;;;;;;;;22.50;66.18;102258.84;106249;1291;73559;-57
2023/09/25 08:04:35;;;;;;;;;;;;;;;23.04;66.80;102257.16;106246;1289;68043;-57
2023/09/25 08:07:21;;;;;;;;;;;;;;;23.55;66.59;102254.92;106215;1289;72617;-57
2023/09/25 08:10:08;;;;;;;;;;;;;;;24.21;67.11;102252.62;106222;1290;60039;-58
2023/09/25 08:12:54;;;;;;;;;;;;;;;24.59;66.15;102249.73;106247;1289;60680;-58
2023/09/25 08:15:40;;;;;;;;;;;;;;;24.93;66.60;102248.40;106248;1289;74477;-58
2023/09/25 08:18:26;;;;;;;;;;;;;;;25.06;66.06;102252.67;106235;1289;68366;-58
2023/09/25 08:21:12;;;;;;;;;;;;;;;25.35;66.50;102248.89;106246;1289;72361;-58
2023/09/25 08:23:57;;;;;;;;;;;;;;;25.62;63.37;102246.55;106193;1292;61543;-58
2023/09/25 08:26:46;;;;;;;;;;;;;;;25.54;63.87;102244.86;106272;1289;60025;-58
2023/09/25 08:29:32;;;;;;;;;;;;;;;25.92;65.61;102246.21;106200;1289;73342;-58
2023/09/25 08:32:18;;;;;;;;;;;;;;;26.36;62.27;102239.69;106222;1289;68556;-58
2023/09/25 08:35:04;;;;;;;;;;;;;;;26.84;65.51;102243.96;106229;1295;71369;-58
2023/09/25 08:37:50;;;;;;;;;;;;;;;27.44;64.73;102244.98;106175;1289;59120;-58
2023/09/25 08:40:36;;;;;;;;;;;;;;;27.89;64.97;102239.86;106250;1295;59402;-59
2023/09/25 08:43:22;;;;;;;;;;;;;;;28.55;63.83;102239.85;106191;1288;74971;-58
2023/09/25 08:46:08;;;;;;;;;;;;;;;28.86;63.36;102241.30;106247;1294;67275;-59
2023/09/25 08:48:56;;;;;;;;;;;;;;;29.40;63.98;102240.09;106217;1289;72754;-59
2023/09/25 08:51:42;;;;;;;;;;;;;;;29.90;62.64;102231.02;106171;1289;58996;-59
2023/09/25 08:54:28;;;;;;;;;;;;;;;30.22;63.20;102222.67;106244;1289;58976;-58
2023/09/25 08:57:15;;;;;;;;;;;;;;;30.53;61.02;102220.11;106191;1289;73188;-59
2023/09/25 09:00:11;;;;;;;;;;;;;;;30.73;62.04;102219.56;106224;1290;67390;-59
2023/09/25 09:02:57;;;;;;;;;;;;;;;31.01;60.13;102220.95;106188;1289;72009;-58
2023/09/25 09:05:42;;;;;;;;;;;;;;;31.22;60.08;102223.98;106177;1289;59017;-58
2023/09/25 09:08:29;;;;;;;;;;;;;;;31.69;60.90;102223.23;106236;1289;59489;-59
2023/09/25 09:11:15;;;;;;;;;;;;;;;32.24;60.20;102227.88;106203;1289;73462;-58
2023/09/25 09:14:01;;;;;;;;;;;;;;;32.79;59.03;102222.74;106216;1290;68606;-59
2023/09/25 09:16:57;;;;;;;;;;;;;;;33.09;57.33;102222.86;106231;1289;73071;-59
2023/09/25 09:19:45;;;;;;;;;;;;;;;32.86;56.61;102220.20;106260;1289;58948;-59
2023/09/25 09:22:31;;;;;;;;;;;;;;;32.69;57.07;102223.91;106255;1289;59043;-56
2023/09/25 09:25:20;;;;;;;;;;;;;;;33.02;56.82;102219.16;106155;1288;73515;-58
2023/09/25 09:28:07;;;;;;;;;;;;;;;33.37;56.20;102218.45;106196;1290;67479;-57
2023/09/25 09:30:56;;;;;;;;;;;;;;;33.69;55.40;102214.20;106208;1289;70993;-57
2023/09/25 09:33:42;;;;;;;;;;;;;;;34.00;54.51;102210.14;106220;1290;58995;-58
2023/09/25 09:36:28;;;;;;;;;;;;;;;34.09;54.17;102206.42;106247;1289;59773;-58
2023/09/25 09:39:16;;;;;;;;;;;;;;;34.51;54.34;102200.28;106251;1289;74102;-57
2023/09/25 09:42:08;;;;;;;;;;;;;;;35.16;53.86;102201.11;106218;1289;68899;-58
2023/09/25 09:44:54;;;;;;;;;;;;;;;35.54;51.67;102201.93;106187;1289;71392;-58
2023/09/25 09:47:43;;;;;;;;;;;;;;;34.85;50.14;102202.03;106197;1289;58860;-57
2023/09/25 09:50:31;;;;;;;;;;;;;;;34.27;50.65;102197.68;106237;1290;60340;-57
2023/09/25 09:53:17;;;;;;;;;;;;;;;34.52;49.72;102191.33;106178;1289;74308;-58
2023/09/25 09:56:03;;;;;;;;;;;;;;;34.79;48.48;102188.61;106260;1289;66560;-58
2023/09/25 09:58:50;;;;;;;;;;;;;;;35.30;47.99;102188.39;106210;1289;72729;-58
2023/09/25 10:01:37;;;;;;;;;;;;;;;35.84;48.54;102190.30;106249;1288;59020;-58
2023/09/25 10:04:24;;;;;;;;;;;;;;;36.44;46.08;102187.22;106271;1290;59194;-60
2023/09/25 10:07:10;;;;;;;;;;;;;;;36.67;46.15;102186.22;106260;1289;74172;-59
2023/09/25 10:09:58;;;;;;;;;;;;;;;36.65;46.03;102182.52;104873;1292;67263;-58
2023/09/25 10:12:50;;;;;;;;;;;;;;;35.73;45.25;102180.33;104886;1289;71255;-56
2023/09/25 10:15:38;;;;;;;;;;;;;;;35.03;46.03;102177.30;104917;1289;61154;-58
2023/09/25 10:18:28;;;;;;;;;;;;;;;35.31;44.96;102173.05;106115;1290;59702;-59
2023/09/25 10:21:14;;;;;;;;;;;;;;;34.88;43.91;102169.16;106277;1289;74251;-58
2023/09/25 10:24:00;;;;;;;;;;;;;;;34.74;43.31;102168.36;106225;1291;67410;-58
2023/09/25 10:26:47;;;;;;;;;;;;;;;35.25;42.90;102164.73;106246;1289;72859;-58
2023/09/25 10:29:33;;;;;;;;;;;;;;;35.76;42.31;102164.72;106251;1289;59105;-59
2023/09/25 10:32:29;;;;;;;;;;;;;;;34.93;39.88;102157.57;106246;1288;59862;-57
2023/09/25 10:35:33;;;;;;;;;;;;;;;34.86;40.84;102155.71;106259;1289;73123;-57
2023/09/25 10:38:21;;;;;;;;;;;;;;;35.43;41.13;102153.40;106293;1289;67394;-60
2023/09/25 10:41:07;;;;;;;;;;;;;;;36.46;40.55;102151.39;106263;1288;71374;-59
2023/09/25 10:43:53;;;;;;;;;;;;;;;36.86;39.77;102155.73;106306;1289;58932;-58
2023/09/25 10:46:39;;;;;;;;;;;;;;;37.56;40.73;102146.92;106231;1290;59461;-59
2023/09/25 10:49:26;;;;;;;;;;;;;;;38.04;38.70;102145.16;106290;1289;74511;-58
2023/09/25 10:52:12;;;;;;;;;;;;;;;38.30;39.70;102143.27;106276;1289;67447;-58
2023/09/25 10:54:58;;;;;;;;;;;;;;;38.75;38.13;102142.19;106254;1289;71778;-58
2023/09/25 10:57:44;;;;;;;;;;;;;;;38.09;38.15;102140.85;106166;1289;58332;-58
2023/09/25 11:00:32;;;;;;;;;;;;;;;38.15;38.04;102133.39;106245;1289;58734;-59
2023/09/25 11:03:18;;;;;;;;;;;;;;;37.97;34.42;102134.15;106295;1289;73186;-58
2023/09/25 11:06:05;;;;;;;;;;;;;;;37.92;35.99;102129.77;106116;1289;68746;-57
2023/09/25 11:08:58;;;;;;;;;;;;;;;38.47;36.80;102127.52;106194;1290;71219;-59
2023/09/25 11:11:44;;;;;;;;;;;;;;;39.27;36.30;102124.70;106202;1290;58926;-58
2023/09/25 11:14:39;;;;;;;;;;;;;;;39.82;35.08;102119.53;106151;1290;59340;-58
2023/09/25 11:17:26;;;;;;;;;;;;;;;40.06;35.87;102113.50;105922;1291;73440;-58
2023/09/25 11:20:19;;;;;;;;;;;;;;;40.22;35.50;102111.56;104825;1292;68582;-58
2023/09/25 11:23:08;;;;;;;;;;;;;;;40.25;34.00;102111.06;104868;1289;71723;-57
2023/09/25 11:25:55;;;;;;;;;;;;;;;40.30;34.79;102101.90;104902;1294;61148;-57
2023/09/25 11:28:41;;;;;;;;;;;;;;;40.59;32.86;102099.34;104887;1292;59298;-57
2023/09/25 11:31:27;;;;;;;;;;;;;;;39.93;32.14;102098.17;104849;1291;73293;-57
2023/09/25 11:34:14;;;;;;;;;;;;;;;39.98;32.21;102094.71;104840;1292;71447;-57
2023/09/25 11:37:02;;;;;;;;;;;;;;;38.57;30.34;102090.14;104851;1291;75401;-59
2023/09/25 11:39:48;;;;;;;;;;;;;;;36.45;30.68;102094.45;104796;1294;61537;-59
2023/09/25 11:42:34;;;;;;;;;;;;;;;35.19;30.88;102090.49;104849;1292;61131;-58
2023/09/25 11:45:21;;;;;;;;;;;;;;;34.18;30.66;102087.25;104868;1293;73761;-57
2023/09/25 11:48:11;;;;;;;;;;;;;;;32.49;30.21;102082.76;104918;1291;67629;-57
2023/09/25 11:50:57;;;;;;;;;;;;;;;31.26;30.62;102079.29;106145;1289;71400;-58
2023/09/25 11:53:43;;;;;;;;;;;;;;;30.44;30.77;102074.15;106185;1291;59157;-58
2023/09/25 11:56:29;;;;;;;;;;;;;;;29.82;30.84;102073.37;106189;1290;59825;-57
2023/09/25 11:59:16;;;;;;;;;;;;;;;29.42;30.88;102077.75;106152;1289;73370;-57
2023/09/25 12:02:01;;;;;;;;;;;;;;;29.02;30.84;102075.08;106202;1290;67576;-57
2023/09/25 12:04:47;;;;;;;;;;;;;;;28.53;30.88;102077.42;105045;1289;71367;-56
2023/09/25 12:07:36;;;;;;;;;;;;;;;28.06;31.05;102078.16;104839;1290;61687;-55
2023/09/25 12:10:22;;;;;;;;;;;;;;;27.51;31.21;102079.06;101634;1289;5008525;-55
2023/09/25 12:13:08;;;;;;;;;;;;;;;26.97;31.46;102080.70;106222;1290;67370;-56
2023/09/25 12:15:54;;;;;;;;;;;;;;;26.41;32.11;102076.35;105997;1291;73081;-55
2023/09/25 12:18:40;;;;;;;;;;;;;;;26.38;32.16;102073.85;106176;1289;59118;-57
2023/09/25 12:21:26;;;;;;;;;;;;;;;27.94;32.06;102072.52;105003;1290;61799;-56
2023/09/25 12:24:12;;;;;;;;;;;;;;;29.85;31.99;102062.98;104844;1289;73238;-57
2023/09/25 12:26:58;;;;;;;;;;;;;;;30.04;31.63;102067.29;104913;1288;66727;-56
2023/09/25 12:29:45;;;;;;;;;;;;;;;29.49;32.29;102068.19;104859;1294;70635;-56
2023/09/25 12:32:31;;;;;;;;;;;;;;;30.48;32.51;102061.05;104826;1291;61920;-57
2023/09/25 12:35:18;;;;;;;;;;;;;;;31.80;32.50;102064.84;105099;1289;61242;-56
2023/09/25 12:38:05;;;;;;;;;;;;;;;32.92;32.21;102067.79;104879;1289;73224;-57
2023/09/25 12:40:51;;;;;;;;;;;;;;;33.36;31.95;102058.86;104898;1292;70102;-56
2023/09/25 12:43:37;;;;;;;;;;;;;;;33.01;32.13;102061.46;104804;1294;71215;-55
2023/09/25 12:46:23;;;;;;;;;;;;;;;32.27;32.40;102061.29;104810;1289;61190;-55
2023/09/25 12:49:09;;;;;;;;;;;;;;;31.41;32.48;102057.55;104899;1292;61203;-55
2023/09/25 12:51:55;;;;;;;;;;;;;;;31.91;32.37;102062.50;104838;1291;73180;-56
2023/09/25 12:54:41;;;;;;;;;;;;;;;31.99;32.17;102060.05;104864;1291;67267;-55
2023/09/25 12:57:28;;;;;;;;;;;;;;;31.18;32.53;102060.33;104788;1291;71227;-55
2023/09/25 13:00:14;;;;;;;;;;;;;;;30.45;32.57;102053.59;104945;1291;61173;-54
2023/09/25 13:03:01;;;;;;;;;;;;;;;29.65;32.69;102050.29;104901;1289;61159;-55
2023/09/25 13:05:47;;;;;;;;;;;;;;;28.92;32.98;102047.34;104820;1292;73286;-55
2023/09/25 13:08:33;;;;;;;;;;;;;;;28.38;33.34;102051.74;104841;1291;67283;-55
2023/09/25 13:11:20;;;;;;;;;;;;;;;27.96;33.19;102047.77;104856;1289;71258;-56
2023/09/25 13:14:06;;;;;;;;;;;;;;;27.51;33.39;102048.25;104932;1289;61971;-54
2023/09/25 13:16:52;;;;;;;;;;;;;;;27.06;33.52;102042.80;104934;1289;61505;-53
2023/09/25 13:19:41;;;;;;;;;;;;;;;26.69;33.56;102044.05;104916;1289;72131;-55
2023/09/25 13:22:28;;;;;;;;;;;;;;;26.32;33.93;102046.14;104922;1288;67192;-55
2023/09/25 13:25:14;;;;;;;;;;;;;;;26.07;34.69;102042.23;104929;1293;73998;-54
2023/09/25 13:28:00;;;;;;;;;;;;;;;26.01;34.52;102033.60;104914;1290;61052;-55
2023/09/25 13:30:46;;;;;;;;;;;;;;;25.99;34.69;102031.64;104961;1289;61161;-55
2023/09/25 13:33:32;;;;;;;;;;;;;;;25.77;34.39;102024.61;104911;1290;76468;-53
2023/09/25 13:36:18;;;;;;;;;;;;;;;25.36;34.22;102030.06;104839;1288;70355;-54
2023/09/25 13:39:05;;;;;;;;;;;;;;;24.99;34.67;102028.96;104867;1290;71189;-53
2023/09/25 13:41:51;;;;;;;;;;;;;;;24.70;35.44;102029.77;104795;1292;61202;-55
2023/09/25 13:44:37;;;;;;;;;;;;;;;24.63;35.28;102020.47;104888;1293;61208;-54
2023/09/25 13:47:23;;;;;;;;;;;;;;;24.75;35.57;102020.20;104875;1289;74448;-55
2023/09/25 13:50:14;;;;;;;;;;;;;;;24.82;36.23;102019.61;105962;1289;166623;-53
2023/09/25 13:53:00;;;;;;;;;;;;;;;24.88;35.97;102007.68;106215;1289;71090;-54
2023/09/25 13:55:46;;;;;;;;;;;;;;;24.87;35.96;102014.80;105688;1289;58933;-54
2023/09/25 13:58:33;;;;;;;;;;;;;;;24.75;35.98;102012.76;104828;1290;59922;-54
2023/09/25 14:01:19;;;;;;;;;;;;;;;24.66;36.15;102006.55;104929;1289;75977;-54
2023/09/25 14:04:06;;;;;;;;;;;;;;;24.56;36.28;102003.75;104897;1288;70708;-55
2023/09/25 14:06:52;;;;;;;;;;;;;;;24.33;36.28;102003.36;104914;1289;71279;-54
2023/09/25 14:09:38;;;;;;;;;;;;;;;24.06;36.40;102005.26;104930;1289;61493;-54